Jamestown, Canada
Current Conditions -  °F | °C
As of 2:00 PM on Saturday 25 Oct 2014 (Local Time) from CYQX Reporting Station
Light Rain Light Rain  
Wind Chill:   Ceiling: 600
Heat Index:   Visibility: 4mi
Dew Point:   Wind: 21mph
Humidity: 93%   Direction: 60°ENE
Pressure: 29.53"   Gusts: 32mph
Location:  48.43°N, 53.8°W
Report Text: CYQX 251600Z 06018G28KT 4SM -RA BR BKN006 OVC012 06/05 A2953 RMK SF7SC1 SLP005
Loading
Personal Weather Stations






























Interactive Weather Map
Tropical Storm Tracking
New forecast layout! Learn more

10-Day Weather Forecast

Advertisements
Track Severe Weather on mobile